Time;durP1;ratioP1;P1;durP2;ratioP2;P2;SDS_P1;SDS_P2;PMS_P1;PMS_P2;Temp;Humidity;BMP_temperature;BMP_pressure;BME280_temperature;BME280_humidity;BME280_pressure;Samples;Min_cycle;Max_cycle;Signal;HPM_P1;HPM_P2
2022/12/18 00:00:17;;;;;;;37.00;17.70;;;;;;;0.17;85.95;101927.95;105129;1295;61328;-73
2022/12/18 00:03:06;;;;;;;39.60;18.30;;;;;;;0.23;85.60;101936.98;105170;1304;73676;-74
2022/12/18 00:05:36;;;;;;;28.80;15.30;;;;;;;0.10;85.00;101940.03;105161;1293;69773;-75
2022/12/18 00:08:05;;;;;;;36.20;15.70;;;;;;;0.19;85.15;101935.83;105147;1295;69965;-74
2022/12/18 00:10:37;;;;;;;33.80;16.60;;;;;;;0.16;84.73;101950.07;105112;1290;73915;-74
2022/12/18 00:13:05;;;;;;;33.90;14.00;;;;;;;0.15;84.50;101954.53;105072;1301;62487;-74
2022/12/18 00:15:39;;;;;;;30.40;11.30;;;;;;;0.13;84.77;101956.95;105159;1286;60751;-74
2022/12/18 00:18:09;;;;;;;23.60;10.70;;;;;;;0.12;84.52;101966.38;105015;1289;72651;-74
2022/12/18 00:20:43;;;;;;;35.20;15.60;;;;;;;0.08;84.43;101963.17;105232;1290;69787;-71
2022/12/18 00:23:11;;;;;;;33.00;16.60;;;;;;;0.05;84.62;101975.86;105107;1297;68971;-71
2022/12/18 00:25:40;;;;;;;27.60;13.70;;;;;;;-0.03;85.12;101980.20;104938;1298;72836;-73
2022/12/18 00:28:09;;;;;;;29.90;14.30;;;;;;;0.00;84.81;101992.70;104935;1297;57701;-73
2022/12/18 00:30:38;;;;;;;31.60;14.50;;;;;;;-0.03;84.58;101993.75;105099;1288;59831;-73
2022/12/18 00:33:08;;;;;;;25.90;13.10;;;;;;;-0.07;84.61;101998.74;104876;1293;71181;-74
2022/12/18 00:35:37;;;;;;;27.20;11.70;;;;;;;-0.04;84.54;102008.15;105065;1290;69624;-74
2022/12/18 00:38:06;;;;;;;32.70;14.50;;;;;;;-0.01;85.10;102002.64;105038;1295;68959;-77
2022/12/18 00:40:34;;;;;;;30.40;13.60;;;;;;;-0.02;84.81;102008.30;104920;1298;72976;-75
2022/12/18 00:43:03;;;;;;;31.50;13.80;;;;;;;-0.01;84.73;102011.20;104937;1289;60252;-75
2022/12/18 00:45:32;;;;;;;30.60;13.70;;;;;;;0.01;85.12;102013.07;105039;1293;60529;-74
2022/12/18 00:48:01;;;;;;;28.90;13.10;;;;;;;0.06;84.65;102008.23;105060;1295;73649;-75
2022/12/18 00:50:31;;;;;;;29.00;13.60;;;;;;;0.04;84.49;102014.42;104911;1301;71235;-74
2022/12/18 00:53:01;;;;;;;24.60;11.50;;;;;;;-0.05;84.18;102012.09;104965;1301;68746;-75
2022/12/18 00:55:30;;;;;;;30.70;14.80;;;;;;;-0.14;83.87;102015.40;104983;1293;74022;-75
2022/12/18 00:57:58;;;;;;;25.20;13.50;;;;;;;-0.28;83.76;102017.55;104973;1298;59472;-75
2022/12/18 01:00:27;;;;;;;27.20;13.60;;;;;;;-0.40;83.59;102019.69;105107;1295;58921;-75
2022/12/18 01:02:56;;;;;;;16.40;7.90;;;;;;;-0.58;84.43;102021.67;105001;1294;73751;-74
2022/12/18 01:05:26;;;;;;;33.70;13.50;;;;;;;-0.60;84.27;102027.16;105150;1290;69577;-75
2022/12/18 01:07:56;;;;;;;28.10;14.10;;;;;;;-0.70;84.90;102020.55;105096;1301;67061;-75
2022/12/18 01:10:25;;;;;;;32.10;14.10;;;;;;;-0.78;85.02;102023.98;104879;1304;72115;-74
2022/12/18 01:12:58;;;;;;;28.00;11.90;;;;;;;-0.82;85.64;102029.83;104898;1295;59683;-74
2022/12/18 01:15:27;;;;;;;24.20;11.80;;;;;;;-0.90;85.15;102029.85;104896;1304;60755;-74
2022/12/18 01:17:55;;;;;;;30.40;14.90;;;;;;;-0.95;85.83;102030.56;105100;1297;72941;-73
2022/12/18 01:20:27;;;;;;;28.50;13.50;;;;;;;-0.99;85.93;102032.98;105169;1291;73122;-72
2022/12/18 01:22:56;;;;;;;28.30;13.80;;;;;;;-1.00;85.71;102032.98;104962;1301;69137;-73
2022/12/18 01:25:25;;;;;;;32.90;14.90;;;;;;;-1.00;86.32;102030.08;105122;1287;72132;-73
2022/12/18 01:27:54;;;;;;;27.40;13.80;;;;;;;-0.96;86.23;102038.95;105061;1297;59824;-74
2022/12/18 01:30:23;;;;;;;32.90;15.10;;;;;;;-1.00;86.27;102039.48;104941;1299;58762;-72
2022/12/18 01:32:53;;;;;;;31.90;14.30;;;;;;;-1.06;86.13;102046.52;104956;1298;74640;-74
2022/12/18 01:35:22;;;;;;;;;;;;;;;-1.11;87.10;102048.23;105107;1301;69620;-74
2022/12/18 01:37:55;;;;;;;29.70;15.40;;;;;;;-1.14;87.27;102049.44;103976;1297;1340942;-72
2022/12/18 01:40:23;;;;;;;37.10;18.40;;;;;;;-1.16;87.56;102050.30;105071;1295;72188;-72
2022/12/18 01:42:53;;;;;;;33.40;16.20;;;;;;;-1.13;87.52;102047.39;104876;1296;60505;-72
2022/12/18 01:45:27;;;;;;;30.80;16.80;;;;;;;-1.14;87.47;102042.93;104789;1304;59382;-73
2022/12/18 01:48:03;;;;;;;32.00;14.20;;;;;;;-1.21;87.13;102043.13;105025;1297;74632;-73
2022/12/18 01:50:41;;;;;;;29.70;13.40;;;;;;;-1.25;87.07;102048.77;105022;1296;71478;-74
2022/12/18 01:53:20;;;;;;;29.40;13.40;;;;;;;-1.29;86.74;102049.98;105047;1299;70558;-75
2022/12/18 01:55:56;;;;;;;29.60;13.70;;;;;;;-1.30;86.78;102051.02;104943;1299;71672;-73
2022/12/18 01:58:37;;;;;;;30.80;15.20;;;;;;;-1.28;86.92;102051.52;104818;1298;62355;-73
2022/12/18 02:04:22;;;;;;;26.40;11.90;;;;;;;-1.26;86.01;102059.81;102746;1294;602120;-77
2022/12/18 02:07:25;;;;;;;29.00;12.60;;;;;;;-1.31;85.58;102065.20;104958;1268;59785;-78
2022/12/18 02:10:55;;;;;;;25.40;12.60;;;;;;;-1.35;85.85;102069.82;105404;1263;58976;-79
2022/12/18 02:13:40;;;;;;;21.40;9.00;;;;;;;-1.36;85.39;102074.27;105297;1270;71093;-80
2022/12/18 02:16:30;;;;;;;32.00;15.00;;;;;;;-1.35;85.46;102077.70;105311;1274;71169;-72
2022/12/18 02:19:15;;;;;;;26.10;11.70;;;;;;;-1.34;85.76;102078.20;104582;1271;1333711;-81
2022/12/18 02:22:11;;;;;;;21.70;10.50;;;;;;;-1.35;85.74;102082.12;105735;1265;71761;-82
2022/12/18 02:25:23;;;;;;;22.30;10.30;;;;;;;-1.43;85.88;102075.64;105488;1275;61296;-81
2022/12/18 02:27:59;;;;;;;27.30;14.40;;;;;;;-1.44;86.11;102089.31;105563;1267;59381;-82
2022/12/18 02:30:35;;;;;;;32.80;15.00;;;;;;;-1.50;86.46;102091.53;105569;1260;72257;-81
2022/12/18 02:33:07;;;;;;;29.70;13.60;;;;;;;-1.48;87.08;102101.79;105515;1270;70204;-81
2022/12/18 02:35:39;;;;;;;30.60;14.60;;;;;;;-1.49;87.41;102107.42;105459;1275;67956;-74
2022/12/18 02:38:09;;;;;;;22.60;9.60;;;;;;;-1.47;86.89;102112.73;105546;1269;72977;-74
2022/12/18 02:40:42;;;;;;;31.20;15.10;;;;;;;-1.49;86.71;102120.59;105383;1275;60356;-77
2022/12/18 02:43:15;;;;;;;26.30;11.60;;;;;;;-1.54;86.83;102115.46;105480;1261;60572;-76
2022/12/18 02:45:57;;;;;;;19.30;7.20;;;;;;;-1.55;86.66;102116.65;105398;1270;71149;-77
2022/12/18 02:48:34;;;;;;;30.10;14.10;;;;;;;-1.59;86.78;102123.83;105403;1267;69686;-77
2022/12/18 02:51:32;;;;;;;37.20;16.50;;;;;;;-1.56;87.40;102124.35;105532;1266;70144;-78
2022/12/18 02:54:41;;;;;;;28.70;13.10;;;;;;;-1.53;87.08;102139.22;105466;1267;71301;-77
2022/12/18 02:57:42;;;;;;;24.60;11.40;;;;;;;-1.56;86.79;102137.33;105549;1266;60793;-82
2022/12/18 03:00:33;;;;;;;35.50;15.50;;;;;;;-1.57;86.67;102142.63;105409;1264;59772;-83
2022/12/18 03:03:19;;;;;;;38.20;17.90;;;;;;;-1.56;86.56;102144.34;106011;1268;71856;-78
2022/12/18 03:05:56;;;;;;;39.50;17.20;;;;;;;-1.54;86.57;102148.60;106013;1261;70787;-75
2022/12/18 03:08:30;;;;;;;31.60;14.30;;;;;;;-1.50;87.22;102151.69;105945;1268;67895;-76
2022/12/18 03:11:13;;;;;;;35.10;16.90;;;;;;;-1.46;86.84;102151.52;105862;1257;72160;-75
2022/12/18 03:13:56;;;;;;;34.80;15.90;;;;;;;-1.44;86.58;102157.15;105880;1267;60152;-76
2022/12/18 03:16:31;;;;;;;31.20;14.50;;;;;;;-1.46;86.38;102156.48;105873;1255;59510;-76
2022/12/18 03:19:06;;;;;;;28.60;13.20;;;;;;;-1.49;86.22;102162.12;105855;1261;72992;-80
2022/12/18 03:21:45;;;;;;;28.20;13.70;;;;;;;-1.55;86.28;102161.75;105879;1261;69276;-82
2022/12/18 03:24:16;;;;;;;32.20;13.40;;;;;;;-1.60;86.54;102163.64;106002;1264;68658;-79
2022/12/18 03:26:54;;;;;;;32.40;14.60;;;;;;;-1.58;86.70;102166.04;105786;1264;71208;-83
2022/12/18 03:29:46;;;;;;;21.00;10.40;;;;;;;-1.56;86.65;102176.29;105975;1260;59665;-79
2022/12/18 03:33:06;;;;;;;23.80;10.70;;;;;;;-1.61;86.40;102174.74;105874;1261;61074;-77
2022/12/18 03:35:41;;;;;;;31.40;14.40;;;;;;;-1.67;85.74;102183.45;106009;1256;71090;-79
2022/12/18 03:38:12;;;;;;;35.30;16.90;;;;;;;-1.66;86.01;102184.81;105878;1265;70237;-82
2022/12/18 03:41:46;;;;;;;27.50;12.40;;;;;;;-1.69;85.65;102188.75;105937;1262;68763;-80
2022/12/18 03:45:34;;;;;;;36.10;16.80;;;;;;;-1.75;86.08;102202.40;105589;1269;71932;-78
2022/12/18 03:48:12;;;;;;;38.50;18.50;;;;;;;-1.77;86.18;102206.83;105939;1262;61433;-78
2022/12/18 03:51:01;;;;;;;36.50;16.30;;;;;;;-1.76;87.75;102215.20;105942;1264;61242;-78
2022/12/18 03:53:58;;;;;;;34.20;16.50;;;;;;;-1.81;86.59;102220.48;105874;1264;72198;-79
2022/12/18 03:56:38;;;;;;;34.00;15.80;;;;;;;-1.83;86.48;102228.50;105963;1264;73673;-80
2022/12/18 03:59:11;;;;;;;36.80;17.30;;;;;;;-1.84;86.74;102231.40;105950;1268;69921;-81
2022/12/18 04:01:47;;;;;;;28.10;12.00;;;;;;;-1.77;86.55;102240.30;105669;1260;73454;-80
2022/12/18 04:04:18;;;;;;;32.80;15.60;;;;;;;-1.73;86.38;102246.13;105904;1269;62149;-78
2022/12/18 04:06:50;;;;;;;33.70;15.20;;;;;;;-1.73;85.97;102255.52;105791;1269;60839;-82
2022/12/18 04:09:20;;;;;;;35.90;15.40;;;;;;;-1.75;85.90;102252.27;105929;1260;73000;-81
2022/12/18 04:11:51;;;;;;;31.60;14.80;;;;;;;-1.77;86.01;102258.76;105875;1269;70545;-78
2022/12/18 04:14:20;;;;;;;35.10;16.10;;;;;;;-1.79;86.02;102263.88;105969;1259;68299;-76
2022/12/18 04:16:51;;;;;;;30.40;14.40;;;;;;;-1.80;86.29;102270.02;105889;1260;71133;-79
2022/12/18 04:19:23;;;;;;;36.90;17.30;;;;;;;-1.79;86.48;102281.63;105948;1260;62354;-79
2022/12/18 04:21:52;;;;;;;34.90;16.90;;;;;;;-1.77;86.43;102285.05;105879;1257;59003;-80
2022/12/18 04:24:21;;;;;;;35.90;14.80;;;;;;;-1.76;86.27;102284.38;105928;1264;70263;-78
2022/12/18 04:27:07;;;;;;;35.20;16.60;;;;;;;-1.76;85.92;102288.64;105871;1261;69652;-80
2022/12/18 04:29:43;;;;;;;32.10;14.50;;;;;;;-1.76;86.07;102289.34;105735;1259;69151;-78
2022/12/18 04:32:12;;;;;;;37.60;16.40;;;;;;;-1.75;85.67;102297.38;105858;1267;72969;-77
2022/12/18 04:34:41;;;;;;;37.90;16.30;;;;;;;-1.74;85.75;102297.71;105805;1265;61518;-77
2022/12/18 04:37:11;;;;;;;37.20;16.90;;;;;;;-1.70;85.80;102305.91;105771;1271;60483;-78
2022/12/18 04:39:40;;;;;;;30.20;13.40;;;;;;;-1.67;85.85;102309.53;106283;1269;70389;-76
2022/12/18 04:42:14;;;;;;;37.60;18.20;;;;;;;-1.59;85.50;102310.92;105616;1257;71700;-79
2022/12/18 04:44:44;;;;;;;35.90;16.30;;;;;;;-1.56;85.67;102311.44;105924;1266;69965;-82
2022/12/18 04:47:13;;;;;;;39.20;16.40;;;;;;;-1.56;85.48;102312.30;105781;1261;72244;-80
2022/12/18 04:49:42;;;;;;;44.60;18.00;;;;;;;-1.57;85.36;102315.70;105774;1262;60656;-80
2022/12/18 04:52:10;;;;;;;22.30;11.10;;;;;;;-1.53;85.70;102324.44;105799;1261;60727;-80
2022/12/18 04:54:39;;;;;;;37.40;15.80;;;;;;;-1.53;85.52;102327.00;105833;1260;72976;-80
2022/12/18 04:57:08;;;;;;;39.30;16.70;;;;;;;-1.53;85.89;102328.36;105843;1260;71482;-80
2022/12/18 04:59:37;;;;;;;36.20;16.40;;;;;;;-1.52;85.62;102335.21;105769;1267;71346;-80
2022/12/18 05:02:06;;;;;;;39.00;18.30;;;;;;;-1.55;85.34;102338.27;105796;1260;72360;-80
2022/12/18 05:04:35;;;;;;;36.60;16.40;;;;;;;-1.64;85.94;102350.38;105736;1263;61472;-79
2022/12/18 05:07:04;;;;;;;28.40;12.50;;;;;;;-1.68;85.65;102357.02;105818;1258;60546;-79
2022/12/18 05:09:33;;;;;;;39.70;18.40;;;;;;;-1.72;86.29;102361.77;105838;1269;72844;-79
2022/12/18 05:12:03;;;;;;;36.70;16.50;;;;;;;-1.67;86.33;102367.09;105853;1258;69671;-80
2022/12/18 05:14:31;;;;;;;29.90;14.40;;;;;;;-1.64;86.09;102365.92;105767;1267;69540;-80
2022/12/18 05:17:00;;;;;;;33.70;16.80;;;;;;;-1.64;86.42;102370.52;105847;1257;73414;-78
2022/12/18 05:19:29;;;;;;;35.70;17.00;;;;;;;-1.65;86.07;102374.45;105859;1257;60400;-79
2022/12/18 05:21:58;;;;;;;41.50;19.30;;;;;;;-1.64;86.33;102381.79;105837;1267;59797;-80
2022/12/18 05:24:27;;;;;;;40.20;17.60;;;;;;;-1.67;86.28;102388.63;105668;1267;72158;-79
2022/12/18 05:26:56;;;;;;;34.50;16.00;;;;;;;-1.64;86.35;102392.05;105859;1257;69873;-79
2022/12/18 05:29:25;;;;;;;40.00;17.50;;;;;;;-1.59;85.78;102400.11;105883;1260;68538;-80
2022/12/18 05:31:55;;;;;;;34.20;14.90;;;;;;;-1.52;86.12;102400.83;105844;1264;71785;-81
2022/12/18 05:34:24;;;;;;;39.80;18.80;;;;;;;-1.50;85.42;102406.30;105625;1270;62464;-81
2022/12/18 05:36:54;;;;;;;40.30;17.90;;;;;;;-1.54;85.37;102411.23;105692;1272;60639;-80
2022/12/18 05:39:23;;;;;;;47.20;18.40;;;;;;;-1.49;84.93;102420.32;105735;1261;71448;-79
2022/12/18 05:41:52;;;;;;;42.10;19.00;;;;;;;-1.48;84.95;102425.63;105611;1259;69481;-78
2022/12/18 05:44:21;;;;;;;40.60;19.20;;;;;;;-1.47;85.06;102430.41;105640;1263;68051;-73
2022/12/18 05:46:50;;;;;;;34.10;16.50;;;;;;;-1.42;85.40;102438.98;105510;1267;73062;-77
2022/12/18 05:49:20;;;;;;;35.50;17.30;;;;;;;-1.36;85.07;102442.27;105612;1257;61923;-76
2022/12/18 05:51:49;;;;;;;44.50;18.90;;;;;;;-1.35;84.45;102444.14;105709;1260;61055;-75
2022/12/18 05:54:18;;;;;;;42.60;19.70;;;;;;;-1.34;84.39;102445.68;105587;1264;71782;-75
2022/12/18 05:56:46;;;;;;;47.00;20.10;;;;;;;-1.36;84.11;102454.91;105689;1257;72365;-75
2022/12/18 05:59:16;;;;;;;36.20;15.30;;;;;;;-1.38;84.37;102454.55;105690;1271;69093;-74
2022/12/18 06:01:45;;;;;;;41.40;19.20;;;;;;;-1.38;84.80;102453.70;105686;1267;71137;-73
2022/12/18 06:04:14;;;;;;;41.30;17.80;;;;;;;-1.32;85.09;102455.44;105872;1254;60922;-78
2022/12/18 06:06:44;;;;;;;45.60;21.10;;;;;;;-1.38;85.12;102463.27;105877;1261;61471;-79
2022/12/18 06:09:13;;;;;;;43.70;20.50;;;;;;;-1.35;84.73;102470.11;105850;1272;71661;-82
2022/12/18 06:11:42;;;;;;;40.50;20.10;;;;;;;-1.38;84.82;102476.44;105800;1261;72126;-81
2022/12/18 06:14:10;;;;;;;36.90;14.10;;;;;;;-1.39;84.34;102478.14;105836;1260;70729;-81
2022/12/18 06:16:39;;;;;;;33.30;15.70;;;;;;;-1.39;84.43;102480.70;105833;1257;71752;-80
2022/12/18 06:19:16;;;;;;;46.70;20.70;;;;;;;-1.39;84.70;102484.45;105904;1260;59808;-79
2022/12/18 06:21:45;;;;;;;44.70;19.50;;;;;;;-1.40;84.79;102485.82;105864;1261;59600;-76
2022/12/18 06:24:14;;;;;;;36.90;17.50;;;;;;;-1.35;85.14;102491.16;105628;1270;70231;-79
2022/12/18 06:26:43;;;;;;;37.40;17.70;;;;;;;-1.29;84.32;102488.79;105859;1258;70157;-77
2022/12/18 06:29:13;;;;;;;46.80;19.20;;;;;;;-1.30;84.50;102494.41;105901;1268;67899;-78
2022/12/18 06:31:42;;;;;;;35.70;14.20;;;;;;;-1.27;84.86;102506.75;105536;1269;73912;-78
2022/12/18 06:34:12;;;;;;;37.90;16.30;;;;;;;-1.27;84.82;102509.48;105891;1262;61089;-74
2022/12/18 06:36:41;;;;;;;42.50;17.40;;;;;;;-1.22;85.10;102509.85;105934;1263;59120;-81
2022/12/18 06:39:10;;;;;;;47.50;17.50;;;;;;;-1.19;85.56;102514.13;105916;1264;72942;-80
2022/12/18 06:41:39;;;;;;;46.00;19.90;;;;;;;-1.15;85.04;102519.29;105981;1269;72840;-76
2022/12/18 06:44:07;;;;;;;43.00;19.30;;;;;;;-1.09;85.17;102520.85;105948;1260;71119;-75
2022/12/18 06:46:38;;;;;;;38.40;14.60;;;;;;;-1.09;84.66;102529.91;105930;1260;71613;-75
2022/12/18 06:49:09;;;;;;;38.90;17.10;;;;;;;-1.06;84.65;102537.63;105991;1272;60609;-76
2022/12/18 06:58:01;;;;;;;35.80;15.70;;;;;;;-1.04;82.97;102553.54;104400;1286;601895;-79
2022/12/18 07:00:30;;;;;;;37.30;15.20;;;;;;;-1.12;82.89;102560.86;106523;1270;59475;-78
2022/12/18 07:02:59;;;;;;;39.10;16.70;;;;;;;-1.11;82.47;102557.60;105777;1267;58941;-77
2022/12/18 07:05:29;;;;;;;32.30;13.80;;;;;;;-1.14;82.36;102558.45;105546;1263;71757;-76
2022/12/18 07:07:58;;;;;;;37.40;16.50;;;;;;;-1.17;82.44;102562.52;105410;1264;72443;-77
2022/12/18 07:10:27;;;;;;;35.10;15.60;;;;;;;-1.19;82.38;102564.57;104506;1263;1401824;-75
2022/12/18 07:12:56;;;;;;;37.70;16.60;;;;;;;-1.27;82.49;102559.23;105667;1264;72330;-77
2022/12/18 07:15:25;;;;;;;34.60;15.90;;;;;;;-1.37;83.12;102558.66;105571;1266;62128;-75
2022/12/18 07:17:53;;;;;;;36.70;16.60;;;;;;;-1.36;83.23;102566.52;105589;1266;60236;-77
2022/12/18 07:20:22;;;;;;;46.50;19.10;;;;;;;-1.39;83.68;102575.21;105568;1266;70176;-76
2022/12/18 07:22:51;;;;;;;37.10;17.10;;;;;;;-1.41;83.76;102590.25;105695;1260;70375;-73
2022/12/18 07:25:24;;;;;;;46.60;20.10;;;;;;;-1.44;84.81;102591.77;105653;1270;68661;-76
2022/12/18 07:27:54;;;;;;;39.10;16.20;;;;;;;-1.35;84.38;102590.63;105440;1263;73170;-74
2022/12/18 07:30:24;;;;;;;47.90;19.10;;;;;;;-1.30;83.97;102585.88;105668;1266;61106;-80
2022/12/18 07:32:53;;;;;;;38.80;16.60;;;;;;;-1.35;84.46;102586.70;105714;1266;61509;-76
2022/12/18 07:35:24;;;;;;;39.50;16.10;;;;;;;-1.30;84.40;102597.52;105622;1267;71224;-77
2022/12/18 07:37:54;;;;;;;45.50;18.20;;;;;;;-1.22;84.68;102593.45;105549;1270;70371;-79
2022/12/18 07:40:24;;;;;;;34.20;14.80;;;;;;;-1.21;84.75;102597.05;105670;1274;69598;-77
2022/12/18 07:42:56;;;;;;;31.70;14.50;;;;;;;-1.18;84.36;102601.51;105484;1273;71800;-79
2022/12/18 07:45:25;;;;;;;44.50;17.20;;;;;;;-1.22;84.43;102602.70;105581;1266;60417;-79
2022/12/18 07:47:54;;;;;;;51.90;20.10;;;;;;;-1.18;84.60;102609.20;105407;1270;59603;-77
2022/12/18 07:50:25;;;;;;;38.50;16.00;;;;;;;-1.17;84.42;102608.88;105594;1264;73583;-82
2022/12/18 07:52:58;;;;;;;35.30;16.80;;;;;;;-1.19;84.57;102619.63;105523;1273;70689;-79
2022/12/18 07:55:28;;;;;;;35.50;15.60;;;;;;;-1.27;84.36;102623.52;105480;1266;67862;-77
2022/12/18 07:58:18;;;;;;;46.20;19.60;;;;;;;-1.25;84.56;102623.86;105490;1267;70135;-75
2022/12/18 08:00:47;;;;;;;38.40;18.40;;;;;;;-1.18;84.28;102632.97;105626;1270;62133;-77
2022/12/18 08:03:16;;;;;;;39.90;16.60;;;;;;;-1.12;84.95;102640.88;105577;1273;61210;-78
2022/12/18 08:05:45;;;;;;;38.90;17.40;;;;;;;-0.99;84.47;102635.66;105596;1263;72392;-80
2022/12/18 08:08:14;;;;;;;36.90;16.60;;;;;;;-0.88;83.89;102642.92;105622;1267;71906;-75
2022/12/18 08:10:43;;;;;;;29.20;13.00;;;;;;;-0.76;83.05;102654.78;105571;1261;69468;-79
2022/12/18 08:13:11;;;;;;;38.50;15.70;;;;;;;-0.72;82.20;102657.90;105535;1275;73642;-77
2022/12/18 08:15:40;;;;;;;39.70;17.30;;;;;;;-0.64;81.47;102659.30;105625;1270;59935;-79
2022/12/18 08:18:10;;;;;;;39.60;16.70;;;;;;;-0.67;81.80;102664.77;105610;1266;59245;-77
2022/12/18 08:20:46;;;;;;;45.40;19.80;;;;;;;-0.63;81.92;102663.92;105345;1275;70707;-77
2022/12/18 08:23:15;;;;;;;42.90;19.70;;;;;;;-0.66;82.25;102678.13;105672;1264;71248;-76
2022/12/18 08:25:43;;;;;;;44.60;19.90;;;;;;;-0.74;81.91;102668.31;105706;1268;70222;-77
2022/12/18 08:28:12;;;;;;;35.00;15.80;;;;;;;-0.65;82.26;102668.02;105731;1275;72289;-72
2022/12/18 08:30:43;;;;;;;40.20;17.00;;;;;;;-0.59;82.36;102664.98;105462;1262;59706;-71
2022/12/18 08:33:12;;;;;;;36.20;15.50;;;;;;;-0.46;82.40;102667.44;105536;1275;59107;-78
2022/12/18 08:35:41;;;;;;;37.40;17.00;;;;;;;-0.43;82.14;102658.38;105460;1262;70699;-76
2022/12/18 08:38:13;;;;;;;27.50;13.20;;;;;;;-0.41;80.63;102664.05;105537;1266;69987;-77
2022/12/18 08:40:42;;;;;;;31.70;15.50;;;;;;;-0.40;79.78;102665.23;105506;1266;70468;-79
2022/12/18 08:45:58;;;;;;;33.80;16.00;;;;;;;-0.42;80.11;102667.29;105335;1274;62204;-76
2022/12/18 08:48:27;;;;;;;34.20;15.10;;;;;;;-0.49;79.80;102679.40;105425;1264;60896;-77
2022/12/18 08:50:59;;;;;;;32.40;14.50;;;;;;;-0.48;80.22;102669.14;105386;1266;73033;-77
2022/12/18 09:02:50;;;;;;;31.10;14.30;;;;;;;-0.50;78.93;102678.88;102579;1311;600513;-85
2022/12/18 09:05:19;;;;;;;34.50;15.90;;;;;;;-0.46;79.73;102683.52;104710;1277;59715;-75
2022/12/18 09:07:48;;;;;;;33.20;15.40;;;;;;;-0.41;80.08;102683.55;105320;1270;58969;-79
2022/12/18 09:10:17;;;;;;;34.60;16.00;;;;;;;-0.34;79.51;102686.66;105467;1266;69970;-77
2022/12/18 09:12:46;;;;;;;33.10;15.20;;;;;;;-0.34;79.67;102688.55;105415;1272;70982;-83
2022/12/18 09:15:17;;;;;;;36.00;17.50;;;;;;;-0.34;79.84;102686.83;105214;1274;1458975;-81
2022/12/18 09:17:45;;;;;;;33.60;13.80;;;;;;;-0.35;80.28;102692.64;105586;1271;71678;-73
2022/12/18 09:20:15;;;;;;;32.50;15.20;;;;;;;-0.39;80.32;102692.29;105532;1262;62456;-77
2022/12/18 09:22:45;;;;;;;33.70;15.20;;;;;;;-0.33;80.25;102692.66;105516;1271;58674;-72
2022/12/18 09:25:14;;;;;;;34.70;15.70;;;;;;;-0.32;80.07;102698.66;105402;1262;71094;-69
2022/12/18 09:27:43;;;;;;;35.20;16.00;;;;;;;-0.23;81.21;102699.03;105386;1273;73611;-71
2022/12/18 09:30:13;;;;;;;33.60;14.80;;;;;;;-0.14;81.10;102695.48;105421;1266;69044;-73
2022/12/18 09:32:42;;;;;;;36.60;15.70;;;;;;;-0.05;81.03;102703.91;105319;1265;73730;-77
2022/12/18 09:35:10;;;;;;;49.90;18.40;;;;;;;-0.17;80.09;102707.44;105482;1267;62414;-76
2022/12/18 09:37:41;;;;;;;46.00;19.40;;;;;;;-0.26;80.02;102698.69;105518;1266;58914;-76
2022/12/18 09:40:20;;;;;;;48.00;20.80;;;;;;;-0.35;80.20;102703.09;105407;1261;70782;-71
2022/12/18 09:42:57;;;;;;;43.60;17.70;;;;;;;-0.40;79.74;102710.09;105433;1262;71344;-72
2022/12/18 09:45:28;;;;;;;43.70;18.10;;;;;;;-0.45;79.39;102715.72;105398;1262;69439;-71
2022/12/18 09:47:57;;;;;;;41.80;18.30;;;;;;;-0.59;78.92;102724.36;105394;1262;74263;-72
2022/12/18 09:50:39;;;;;;;34.90;16.30;;;;;;;-0.66;78.99;102724.14;105449;1271;60937;-71
2022/12/18 09:53:24;;;;;;;32.50;16.00;;;;;;;-0.66;79.10;102739.20;105381;1260;59263;-71
2022/12/18 09:55:54;;;;;;;38.40;16.10;;;;;;;-0.75;78.73;102733.50;105509;1265;72918;-69
2022/12/18 09:58:30;;;;;;;37.20;16.20;;;;;;;-0.77;78.71;102734.67;105533;1269;69401;-71
2022/12/18 10:00:59;;;;;;;44.10;19.90;;;;;;;-0.88;79.56;102746.77;105447;1260;68582;-71
2022/12/18 10:03:28;;;;;;;44.60;18.90;;;;;;;-0.86;79.52;102750.71;105501;1265;71367;-73
2022/12/18 10:06:20;;;;;;;46.00;18.40;;;;;;;-0.86;79.66;102758.23;105411;1267;61038;-74
2022/12/18 10:09:37;;;;;;;41.10;16.80;;;;;;;-0.92;79.41;102760.58;105387;1263;59168;-70
2022/12/18 10:12:25;;;;;;;46.90;19.70;;;;;;;-0.86;79.51;102755.33;105553;1266;69435;-68
2022/12/18 10:15:12;;;;;;;43.60;17.80;;;;;;;-0.91;79.61;102751.69;105570;1270;72019;-70
2022/12/18 10:17:53;;;;;;;45.90;19.40;;;;;;;-0.88;79.98;102750.35;105548;1274;68514;-71
2022/12/18 10:20:43;;;;;;;41.20;17.60;;;;;;;-0.89;80.17;102754.80;105586;1267;71860;-71
2022/12/18 10:23:44;;;;;;;46.00;19.40;;;;;;;-0.88;80.40;102766.26;105556;1274;62006;-70
2022/12/18 10:26:16;;;;;;;41.60;16.90;;;;;;;-0.93;80.66;102772.55;105494;1263;61111;-72
2022/12/18 10:28:45;;;;;;;31.90;15.10;;;;;;;-0.90;80.84;102782.66;105501;1274;70598;-71
2022/12/18 10:31:22;;;;;;;46.00;19.00;;;;;;;-0.94;80.56;102775.61;105538;1269;70190;-69
2022/12/18 10:33:55;;;;;;;35.60;16.70;;;;;;;-0.93;80.58;102778.71;105597;1263;68613;-69
2022/12/18 10:36:25;;;;;;;35.40;16.10;;;;;;;-0.94;80.34;102779.21;105494;1272;70319;-70
2022/12/18 10:39:34;;;;;;;32.20;14.80;;;;;;;-0.87;79.66;102789.88;105554;1261;60243;-69
2022/12/18 10:42:19;;;;;;;37.80;16.40;;;;;;;-0.91;79.39;102791.55;105193;1268;60021;-70
2022/12/18 10:45:03;;;;;;;31.70;14.60;;;;;;;-0.96;78.76;102797.84;105290;1278;71739;-71
2022/12/18 10:47:34;;;;;;;30.10;13.20;;;;;;;-1.01;78.53;102802.06;105426;1273;70809;-71
2022/12/18 10:50:04;;;;;;;26.00;12.30;;;;;;;-1.02;77.26;102809.08;105517;1266;68963;-72
2022/12/18 10:52:32;;;;;;;24.50;12.70;;;;;;;-1.18;77.72;102812.34;105474;1271;73176;-70
2022/12/18 10:55:04;;;;;;;32.70;15.10;;;;;;;-1.09;76.80;102801.48;105541;1264;61342;-70
2022/12/18 10:57:36;;;;;;;27.80;13.10;;;;;;;-1.21;77.40;102799.83;105493;1274;58701;-71
2022/12/18 11:00:30;;;;;;;27.30;12.90;;;;;;;-1.13;77.50;102801.79;105590;1259;69939;-70
2022/12/18 11:02:59;;;;;;;28.50;12.10;;;;;;;-1.17;77.36;102801.75;105434;1273;71505;-71
2022/12/18 11:05:32;;;;;;;28.60;14.60;;;;;;;-1.16;76.91;102814.59;105464;1265;70403;-71
2022/12/18 11:08:02;;;;;;;25.10;11.60;;;;;;;-1.20;76.50;102814.03;105503;1269;72129;-68
2022/12/18 11:10:35;;;;;;;27.00;13.40;;;;;;;-1.23;76.70;102813.49;105638;1260;58814;-79
2022/12/18 11:13:38;;;;;;;23.60;10.90;;;;;;;-1.16;76.33;102822.10;105673;1261;60191;-70
2022/12/18 11:16:07;;;;;;;22.90;9.60;;;;;;;-1.14;75.40;102819.22;105469;1256;71175;-71
2022/12/18 11:18:36;;;;;;;30.70;13.00;;;;;;;-1.12;75.37;102817.02;105593;1269;71511;-69
2022/12/18 11:21:12;;;;;;;23.20;10.60;;;;;;;-1.15;75.58;102822.97;105506;1262;70140;-69
2022/12/18 11:23:53;;;;;;;25.90;11.30;;;;;;;-1.22;76.04;102823.92;105538;1266;72894;-70
2022/12/18 11:26:34;;;;;;;24.20;10.00;;;;;;;-1.09;75.48;102828.51;105659;1274;60393;-70
2022/12/18 11:29:17;;;;;;;20.20;10.50;;;;;;;-1.20;75.76;102835.56;105506;1274;59255;-70
2022/12/18 11:31:47;;;;;;;25.30;11.70;;;;;;;-1.20;75.84;102832.14;105672;1267;70010;-71
2022/12/18 11:34:28;;;;;;;24.50;11.60;;;;;;;-1.21;76.07;102829.06;105537;1265;69422;-70
2022/12/18 11:37:00;;;;;;;26.60;11.20;;;;;;;-1.16;75.65;102843.48;105637;1263;70407;-71
2022/12/18 11:39:42;;;;;;;29.30;12.80;;;;;;;-1.18;75.46;102836.45;105406;1266;72424;-71
2022/12/18 11:42:21;;;;;;;28.20;12.40;;;;;;;-1.19;75.75;102840.02;105636;1261;59079;-71
2022/12/18 11:44:58;;;;;;;29.80;13.00;;;;;;;-1.24;76.24;102848.36;105543;1266;58958;-72
2022/12/18 11:48:22;;;;;;;27.40;13.20;;;;;;;-1.20;76.56;102847.20;105586;1264;70813;-71
2022/12/18 11:50:57;;;;;;;30.90;13.50;;;;;;;-1.17;76.82;102856.11;105581;1263;72757;-69
2022/12/18 11:53:27;;;;;;;25.90;11.90;;;;;;;-1.15;76.60;102862.83;105552;1270;72262;-69
2022/12/18 11:56:20;;;;;;;31.70;15.50;;;;;;;-1.22;76.31;102866.16;105517;1270;71570;-69